Terminal Aerodrome Forecast
Issued by NWS

Home | Current Version | Previous Version | Text Only | Print | Product List | Glossary On
Versions: 1 2 3 4 5 6 7 8 9 10 11 12 13 14 15
000
FTUS43 KGRB 260500
TAFMTW
TAF
KMTW 260528Z 2606/2706 VRB03KT P6SM SCT024 SCT100
      TEMPO 2606/2610 BKN024
     FM261400 17004KT P6SM -SN BKN019 OVC070
     FM261800 17011KT 1 1/2SM -SN BKN018 OVC025
     FM262200 12006KT 2SM -SHSN OVC016
     FM270400 06005KT 2SM -SHSN OVC016=

USA.gov is the U.S. government's official web portal to all federal, state and local government web resources and services.